BBC Emerald — V2FZ2 — position and weather

sailwx.info

Track history (hours):
 
Tides and Currents Weather Stations Pressure Air Temp Water Temp Dewpoint Dewpoint Depression Visibility Wind Speed Wind Dir Waves Ship Positions

BBC Emerald

Last reported at 2017-Nov-11 02:02 UTC. Time now 2017-Nov-24 00:01 UTC.
Position S 39°08' E 145°01'.
Warning: this ship's position is 12 days out of date.

Length 153 m; draft 6.9 m.

Type: Ship. MMSI: 305857000.

Date/timePositionNaut miles runAvg speedWind from/ knotsBaromVisibWave heightAir tempDewpointWater temp
2017-Nov-11 02:02S 39°08' E 145°01'118.7
2017-Nov-11 01:59S 39°08' E 145°02'714.8
2017-Nov-11 01:29S 39°09' E 145°11'1515.2
2017-Nov-11 00:30S 39°10' E 145°30'915.2
2017-Nov-10 23:54S 39°10' E 145°42'3514.5
2017-Nov-10 21:32S 39°10' E 146°27'012.3
2017-Nov-10 21:30S 39°10' E 146°27'714.0
2017-Nov-10 20:59S 39°08' E 146°36'1914.4
2017-Nov-10 19:40S 39°02' E 146°59'715.9
2017-Nov-10 19:13S 38°59' E 147°08'416.2
2017-Nov-10 18:58S 38°58' E 147°13'816.7
2017-Nov-10 18:30S 38°56' E 147°23'916.8
2017-Nov-10 17:58S 38°53' E 147°33'1217.2
2017-Nov-10 17:16S 38°49' E 147°48'3916.9
2017-Nov-10 14:59S 38°32' E 148°32'916.4
2017-Nov-10 14:26S 38°27' E 148°41'716.4
2017-Nov-10 14:00S 38°22' E 148°49'816.3
2017-Nov-10 13:30S 38°18' E 148°57'916.2
2017-Nov-10 12:59S 38°13' E 149°06'816.1
2017-Nov-10 12:29S 38°08' E 149°15'1116.0
2017-Nov-10 11:48S 38°03' E 149°27'  
Track history (hours):
 
Tides and Currents Weather Stations Pressure Air Temp Water Temp Dewpoint Dewpoint Depression Visibility Wind Speed Wind Dir Waves Ship Positions

BBC Emerald

Last reported at 2017-Nov-11 02:02 UTC. Time now 2017-Nov-24 00:01 UTC.
Position S 39°08' E 145°01'.
Warning: this ship's position is 12 days out of date.

Length 153 m; draft 6.9 m.

Type: Ship. MMSI: 305857000.

Date/timePositionNaut miles runAvg speedWind from/ knotsBaromVisibWave heightAir tempDewpointWater temp
2017-Nov-11 02:02S 39°08' E 145°01'118.7
2017-Nov-11 01:59S 39°08' E 145°02'714.8
2017-Nov-11 01:29S 39°09' E 145°11'1515.2
2017-Nov-11 00:30S 39°10' E 145°30'915.2
2017-Nov-10 23:54S 39°10' E 145°42'3514.5
2017-Nov-10 21:32S 39°10' E 146°27'012.3
2017-Nov-10 21:30S 39°10' E 146°27'714.0
2017-Nov-10 20:59S 39°08' E 146°36'1914.4
2017-Nov-10 19:40S 39°02' E 146°59'715.9
2017-Nov-10 19:13S 38°59' E 147°08'416.2
2017-Nov-10 18:58S 38°58' E 147°13'816.7
2017-Nov-10 18:30S 38°56' E 147°23'916.8
2017-Nov-10 17:58S 38°53' E 147°33'1217.2
2017-Nov-10 17:16S 38°49' E 147°48'3916.9
2017-Nov-10 14:59S 38°32' E 148°32'916.4
2017-Nov-10 14:26S 38°27' E 148°41'716.4
2017-Nov-10 14:00S 38°22' E 148°49'816.3
2017-Nov-10 13:30S 38°18' E 148°57'916.2
2017-Nov-10 12:59S 38°13' E 149°06'816.1
2017-Nov-10 12:29S 38°08' E 149°15'1116.0
2017-Nov-10 11:48S 38°03' E 149°27'  

Dump ship's entire track history